createdAt,value
2023-05-05T00:03:19.627Z,101485.56
2023-05-05T00:08:21.516Z,101489.88
2023-05-05T00:13:23.074Z,101479.56
2023-05-05T00:18:24.546Z,101457.94
2023-05-05T00:23:27.427Z,101467.25
2023-05-05T00:28:28.892Z,101465.50
2023-05-05T00:33:30.540Z,101454.16
2023-05-05T00:38:32.080Z,101453.66
2023-05-05T00:43:33.548Z,101452.25
2023-05-05T00:48:35.001Z,101457.16
2023-05-05T00:53:36.513Z,101420.59
2023-05-05T00:58:37.983Z,101430.47
2023-05-05T01:03:39.790Z,101438.94
2023-05-05T01:08:49.950Z,101413.88
2023-05-05T01:14:06.213Z,101407.25
2023-05-05T01:19:40.959Z,101407.22
2023-05-05T01:25:05.518Z,101402.06
2023-05-05T01:30:26.734Z,101391.47
2023-05-05T01:35:29.862Z,101387.84
2023-05-05T01:40:33.595Z,101384.50
2023-05-05T01:45:36.185Z,101373.97
2023-05-05T01:50:37.689Z,101362.00
2023-05-05T01:55:39.214Z,101362.84
2023-05-05T02:00:40.683Z,101385.91
2023-05-05T02:05:42.163Z,101377.69
2023-05-05T02:10:43.649Z,101372.06
2023-05-05T02:15:45.282Z,101368.31
2023-05-05T02:20:46.754Z,101339.28
2023-05-05T02:25:52.957Z,101342.00
2023-05-05T02:30:58.268Z,101319.06
2023-05-05T02:35:59.865Z,101341.63
2023-05-05T02:41:01.320Z,101327.56
2023-05-05T02:46:02.868Z,101352.47
2023-05-05T02:51:04.508Z,101331.56
2023-05-05T02:56:28.868Z,101338.66
2023-05-05T03:01:59.267Z,101324.06
2023-05-05T03:07:14.416Z,101338.16
2023-05-05T03:12:21.823Z,101320.50
2023-05-05T03:17:23.293Z,101327.16
2023-05-05T03:22:24.845Z,101295.34
2023-05-05T03:27:26.310Z,101312.34
2023-05-05T03:32:27.806Z,101313.94
2023-05-05T03:37:29.293Z,101310.72
2023-05-05T03:42:30.748Z,101294.66
2023-05-05T03:47:32.257Z,101283.56
2023-05-05T03:52:33.737Z,101305.44
2023-05-05T03:57:35.357Z,101277.75
2023-05-05T04:02:36.936Z,101270.22
2023-05-05T04:07:38.428Z,101284.94
2023-05-05T04:12:39.918Z,101292.94
2023-05-05T04:17:41.434Z,101271.00
2023-05-05T04:22:43.005Z,101288.00
2023-05-05T04:27:44.461Z,101292.06
2023-05-05T04:32:45.944Z,101280.59
2023-05-05T04:37:47.416Z,101262.69
2023-05-05T04:42:48.935Z,101258.09
2023-05-05T04:47:50.434Z,101268.16
2023-05-05T04:52:52.779Z,101293.06
2023-05-05T04:57:54.394Z,101285.22
2023-05-05T05:02:56.099Z,101264.16
2023-05-05T05:07:57.641Z,101269.19
2023-05-05T05:12:59.152Z,101283.59
2023-05-05T05:18:00.703Z,101312.94
2023-05-05T05:23:02.336Z,101316.78
2023-05-05T05:28:10.058Z,101320.94
2023-05-05T05:33:12.513Z,101314.22
2023-05-05T05:38:14.162Z,101316.22
2023-05-05T05:43:15.637Z,101324.38
2023-05-05T05:48:17.096Z,101340.94
2023-05-05T05:53:18.605Z,101350.31
2023-05-05T05:58:20.086Z,101354.56
2023-05-05T06:03:21.663Z,101340.44
2023-05-05T06:08:24.979Z,101333.34
2023-05-05T06:13:26.649Z,101347.41
2023-05-05T06:18:30.424Z,101364.78
2023-05-05T06:23:31.898Z,101378.78
2023-05-05T06:28:33.399Z,101348.06
2023-05-05T06:33:34.863Z,101383.56
2023-05-05T06:38:36.411Z,101361.63
2023-05-05T06:43:37.882Z,101347.44
2023-05-05T06:48:39.337Z,101376.78
2023-05-05T06:53:41.013Z,101388.16
2023-05-05T06:58:42.565Z,101383.81
2023-05-05T07:03:44.702Z,101397.88
2023-05-05T07:08:46.245Z,101429.63
2023-05-05T07:13:49.191Z,101419.69
2023-05-05T07:18:50.696Z,101412.91
2023-05-05T07:23:52.546Z,101434.94
2023-05-05T07:28:56.022Z,101446.88
2023-05-05T07:33:57.465Z,101449.13
2023-05-05T07:38:58.933Z,101450.59
2023-05-05T07:44:01.143Z,101459.19
2023-05-05T07:49:03.007Z,101465.38
2023-05-05T07:54:04.470Z,101468.81
2023-05-05T07:59:05.988Z,101446.47
2023-05-05T08:04:07.649Z,101435.31
2023-05-05T08:09:10.320Z,101429.56
2023-05-05T08:14:11.669Z,101396.25
2023-05-05T08:19:27.586Z,101381.28
2023-05-05T08:24:30.286Z,101360.75
2023-05-05T08:29:31.766Z,101375.75
2023-05-05T08:34:33.245Z,101361.31
2023-05-05T08:39:34.702Z,101354.63
2023-05-05T08:44:36.228Z,101360.28
2023-05-05T08:49:42.454Z,101362.19
2023-05-05T08:54:51.499Z,101370.66
2023-05-05T08:59:53.046Z,101376.59
2023-05-05T09:04:54.501Z,101374.22
2023-05-05T09:09:55.947Z,101357.56
2023-05-05T09:14:59.310Z,101372.72
2023-05-05T09:20:05.126Z,101366.31
2023-05-05T09:25:07.737Z,101379.50
2023-05-05T09:30:10.738Z,101355.38
2023-05-05T09:35:12.232Z,101349.88
2023-05-05T09:40:15.814Z,101341.59
2023-05-05T09:45:17.172Z,101355.09
2023-05-05T09:50:19.126Z,101369.34
2023-05-05T09:55:20.856Z,101367.75
2023-05-05T10:00:22.416Z,101365.00
2023-05-05T10:05:23.942Z,101363.47
2023-05-05T10:10:27.477Z,101362.19
2023-05-05T10:15:30.088Z,101330.59
2023-05-05T10:20:31.637Z,101347.72
2023-05-05T10:25:36.996Z,101326.66
2023-05-05T10:30:42.718Z,101325.75
2023-05-05T10:35:44.468Z,101350.03
2023-05-05T10:40:45.966Z,101337.53
2023-05-05T10:45:51.924Z,101347.81
2023-05-05T10:51:09.090Z,101349.00
2023-05-05T10:56:40.288Z,101343.28
2023-05-05T11:01:41.867Z,101352.75
2023-05-05T11:07:11.815Z,101354.44
2023-05-05T11:12:16.005Z,101358.22
2023-05-05T11:17:46.357Z,101364.66
2023-05-05T11:23:03.053Z,101354.53
2023-05-05T11:28:14.651Z,101362.38
2023-05-05T11:33:28.992Z,101367.59
2023-05-05T11:38:36.370Z,101363.22
2023-05-05T11:43:37.996Z,101366.03
2023-05-05T11:48:46.222Z,101357.19
2023-05-05T11:53:49.345Z,101370.34
2023-05-05T11:59:08.536Z,101372.00
2023-05-05T12:04:16.238Z,101364.16
2023-05-05T12:09:18.895Z,101354.47
2023-05-05T12:14:20.742Z,101354.41
2023-05-05T12:19:22.376Z,101365.47
2023-05-05T12:24:23.832Z,101362.63
2023-05-05T12:29:26.072Z,101364.09
2023-05-05T12:34:27.592Z,101360.22
2023-05-05T12:39:38.209Z,101342.84
2023-05-05T12:44:40.114Z,101334.75
2023-05-05T12:49:45.859Z,101340.59
2023-05-05T12:54:57.387Z,101327.88
2023-05-05T12:59:58.854Z,101319.31
2023-05-05T13:05:00.358Z,101317.78
2023-05-05T13:10:10.359Z,101317.16
2023-05-05T13:15:12.160Z,101310.16
2023-05-05T13:20:14.042Z,101310.47
2023-05-05T13:25:15.516Z,101316.72
2023-05-05T13:30:17.002Z,101322.22
2023-05-05T13:35:18.478Z,101310.75
2023-05-05T13:40:19.970Z,101298.50
2023-05-05T13:45:21.470Z,101301.69
2023-05-05T13:50:23.880Z,101293.19
2023-05-05T13:55:25.247Z,101281.03
2023-05-05T14:00:27.749Z,101265.53
2023-05-05T14:05:29.223Z,101264.03
2023-05-05T14:10:31.028Z,101268.09
2023-05-05T14:15:32.758Z,101256.31
2023-05-05T14:20:34.301Z,101242.72
2023-05-05T14:25:35.749Z,101242.84
2023-05-05T14:30:37.223Z,101241.44
2023-05-05T14:35:38.696Z,101241.66
2023-05-05T14:40:40.550Z,101253.97
2023-05-05T14:45:42.032Z,101246.50
2023-05-05T14:50:46.225Z,101245.34
2023-05-05T14:55:47.740Z,101242.50
2023-05-05T15:00:49.219Z,101237.56
2023-05-05T15:05:50.745Z,101246.72
2023-05-05T15:10:52.307Z,101252.69
2023-05-05T15:15:53.832Z,101255.97
2023-05-05T15:20:55.406Z,101265.91
2023-05-05T15:25:56.893Z,101262.94
2023-05-05T15:31:02.014Z,101263.50
2023-05-05T15:36:03.536Z,101270.28
2023-05-05T15:41:06.356Z,101266.97
2023-05-05T15:46:07.838Z,101271.72
2023-05-05T15:51:11.446Z,101264.22
2023-05-05T15:56:12.955Z,101250.63
2023-05-05T16:01:17.013Z,101260.03
2023-05-05T16:06:18.545Z,101260.09
2023-05-05T16:11:22.324Z,101249.31
2023-05-05T16:16:23.966Z,101239.72
2023-05-05T16:21:25.721Z,101235.94
2023-05-05T16:26:27.208Z,101240.47
2023-05-05T16:31:28.769Z,101246.06
2023-05-05T16:36:30.270Z,101244.59
2023-05-05T16:41:31.754Z,101265.41
2023-05-05T16:46:33.957Z,101268.31
2023-05-05T16:51:35.475Z,101266.81
2023-05-05T16:56:36.945Z,101262.47
2023-05-05T17:01:38.481Z,101277.59
2023-05-05T17:06:40.019Z,101268.63
2023-05-05T17:11:41.547Z,101278.19
2023-05-05T17:16:43.167Z,101279.50
2023-05-05T17:21:44.707Z,101288.34
2023-05-05T17:26:47.192Z,101283.91
2023-05-05T17:31:51.773Z,101285.88
2023-05-05T17:36:53.312Z,101288.22
2023-05-05T17:41:55.716Z,101309.09
2023-05-05T17:47:04.109Z,101300.84
2023-05-05T17:52:05.608Z,101302.41
2023-05-05T17:57:07.082Z,101316.47
2023-05-05T18:02:08.689Z,101310.41
2023-05-05T18:07:11.855Z,101301.31
2023-05-05T18:12:13.335Z,101302.41
2023-05-05T18:17:14.881Z,101306.47
2023-05-05T18:22:16.873Z,101314.28
2023-05-05T18:27:18.468Z,101313.44
2023-05-05T18:32:29.198Z,101308.72
2023-05-05T18:37:37.046Z,101308.47
2023-05-05T18:42:43.051Z,101309.69
2023-05-05T18:47:44.793Z,101318.47
2023-05-05T18:52:46.286Z,101319.41
2023-05-05T18:57:47.857Z,101308.88
2023-05-05T19:02:49.390Z,101325.94
2023-05-05T19:07:50.877Z,101315.09
2023-05-05T19:12:52.437Z,101319.41
2023-05-05T19:17:54.278Z,101303.91
2023-05-05T19:22:58.169Z,101297.44
2023-05-05T19:27:59.677Z,101295.75
2023-05-05T19:33:01.177Z,101286.78
2023-05-05T19:38:02.676Z,101284.28
2023-05-05T19:43:04.243Z,101292.66
2023-05-05T19:48:06.287Z,101286.47
2023-05-05T19:53:07.747Z,101294.59
2023-05-05T19:58:09.292Z,101311.25
2023-05-05T20:03:11.022Z,101306.53
2023-05-05T20:08:12.608Z,101302.34
2023-05-05T20:13:14.212Z,101312.44
2023-05-05T20:18:15.759Z,101308.31
2023-05-05T20:23:17.213Z,101315.66
2023-05-05T20:28:18.698Z,101308.03
2023-05-05T20:33:20.202Z,101319.19
2023-05-05T20:38:21.760Z,101311.69
2023-05-05T20:43:26.097Z,101328.34
2023-05-05T20:53:47.856Z,101337.25
2023-05-05T20:58:49.495Z,101344.06
2023-05-05T21:03:51.021Z,101329.44
2023-05-05T21:08:52.495Z,101332.38
2023-05-05T21:13:54.063Z,101317.22
2023-05-05T21:18:55.584Z,101314.66
2023-05-05T21:23:57.625Z,101303.97
2023-05-05T21:28:59.151Z,101310.28
2023-05-05T21:34:00.692Z,101316.13
2023-05-05T21:39:02.238Z,101317.94
2023-05-05T21:44:03.688Z,101304.88
2023-05-05T21:49:15.167Z,101315.00
2023-05-05T21:54:18.672Z,101320.03
2023-05-05T21:59:20.294Z,101318.81
2023-05-05T22:04:22.083Z,101328.19
2023-05-05T22:09:23.573Z,101314.72
2023-05-05T22:14:25.484Z,101310.22
2023-05-05T22:19:27.050Z,101318.06
2023-05-05T22:24:30.062Z,101322.53
2023-05-05T22:29:32.373Z,101322.44
2023-05-05T22:34:38.487Z,101312.69
2023-05-05T22:39:40.574Z,101329.31
2023-05-05T22:44:42.033Z,101321.19
2023-05-05T22:49:43.560Z,101316.19
2023-05-05T22:54:45.203Z,101318.09
2023-05-05T22:59:47.255Z,101319.84
2023-05-05T23:04:48.845Z,101306.50
2023-05-05T23:09:50.357Z,101315.28
2023-05-05T23:14:52.365Z,101318.47
2023-05-05T23:19:53.835Z,101304.97
2023-05-05T23:24:55.318Z,101296.44
2023-05-05T23:29:56.791Z,101314.66
2023-05-05T23:34:58.261Z,101297.88
2023-05-05T23:39:59.807Z,101312.44
2023-05-05T23:45:01.332Z,101297.13
2023-05-05T23:50:03.213Z,101302.56
2023-05-05T23:55:05.604Z,101301.91
